createdAt,value
2018-04-10T00:01:38.510Z,20.07
2018-04-10T00:04:14.170Z,19.87
2018-04-10T00:06:49.174Z,19.47
2018-04-10T00:09:29.792Z,19.93
2018-04-10T00:12:04.309Z,18.67
2018-04-10T00:14:39.673Z,19.13
2018-04-10T00:17:14.650Z,21.20
2018-04-10T00:19:49.342Z,20.17
2018-04-10T00:22:24.327Z,21.50
2018-04-10T00:24:59.770Z,21.77
2018-04-10T00:27:36.792Z,20.67
2018-04-10T00:30:12.314Z,18.27
2018-04-10T00:32:47.104Z,18.43
2018-04-10T00:35:22.639Z,19.70
2018-04-10T00:38:00.110Z,18.47
2018-04-10T00:40:35.228Z,18.87
2018-04-10T00:43:09.725Z,19.10
2018-04-10T00:45:45.622Z,19.20
2018-04-10T00:48:20.281Z,20.10
2018-04-10T00:50:54.804Z,18.57
2018-04-10T00:53:37.777Z,18.20
2018-04-10T00:56:12.408Z,18.33
2018-04-10T00:58:47.018Z,18.67
2018-04-10T01:01:22.075Z,17.77
2018-04-10T01:03:56.797Z,18.73
2018-04-10T01:06:31.702Z,18.37
2018-04-10T01:09:12.196Z,18.60
2018-04-10T01:11:47.388Z,22.83
2018-04-10T01:14:22.403Z,20.77
2018-04-10T01:16:56.945Z,19.83
2018-04-10T01:19:31.331Z,18.30
2018-04-10T01:22:06.224Z,17.70
2018-04-10T01:24:41.962Z,19.87
2018-04-10T01:27:16.588Z,19.37
2018-04-10T01:29:51.273Z,19.57
2018-04-10T01:32:26.812Z,20.70
2018-04-10T01:35:01.323Z,18.97
2018-04-10T01:37:36.718Z,20.07
2018-04-10T01:40:11.565Z,19.00
2018-04-10T01:42:46.674Z,21.00
2018-04-10T01:45:21.429Z,22.03
2018-04-10T01:47:56.009Z,21.20
2018-04-10T01:50:31.115Z,20.97
2018-04-10T01:53:06.682Z,22.30
2018-04-10T01:55:41.664Z,19.93
2018-04-10T01:58:17.618Z,18.00
2018-04-10T02:00:52.314Z,19.20
2018-04-10T02:03:26.913Z,18.77
2018-04-10T02:06:02.235Z,17.40
2018-04-10T02:08:36.960Z,18.63
2018-04-10T02:11:13.413Z,19.63
2018-04-10T02:13:48.712Z,18.57
2018-04-10T02:16:25.500Z,17.87
2018-04-10T02:19:00.327Z,18.90
2018-04-10T02:21:37.861Z,18.70
2018-04-10T02:24:12.748Z,18.87
2018-04-10T02:26:47.353Z,18.40
2018-04-10T02:29:22.441Z,19.27
2018-04-10T02:31:57.097Z,20.33
2018-04-10T02:34:34.099Z,20.90
2018-04-10T02:37:10.148Z,21.40
2018-04-10T02:39:44.902Z,20.87
2018-04-10T02:42:19.380Z,20.80
2018-04-10T02:44:54.244Z,19.73
2018-04-10T02:47:28.751Z,21.13
2018-04-10T02:50:03.392Z,20.03
2018-04-10T02:52:38.160Z,23.30
2018-04-10T02:55:13.789Z,21.03
2018-04-10T02:57:48.408Z,21.37
2018-04-10T03:00:22.929Z,19.07
2018-04-10T03:02:58.228Z,20.20
2018-04-10T03:05:32.792Z,19.27
2018-04-10T03:08:07.724Z,20.63
2018-04-10T03:10:42.963Z,22.40
2018-04-10T03:13:18.863Z,22.40
2018-04-10T03:15:54.656Z,20.43
2018-04-10T03:18:36.692Z,18.50
2018-04-10T03:21:11.600Z,19.60
2018-04-10T03:23:46.641Z,22.70
2018-04-10T03:26:21.436Z,21.70
2018-04-10T03:29:05.185Z,21.53
2018-04-10T03:31:40.856Z,21.97
2018-04-10T03:34:15.690Z,21.60
2018-04-10T03:36:50.752Z,22.40
2018-04-10T03:39:25.731Z,26.10
2018-04-10T03:42:02.021Z,25.50
2018-04-10T03:44:38.240Z,23.43
2018-04-10T03:47:13.044Z,22.90
2018-04-10T03:49:48.158Z,23.43
2018-04-10T03:52:23.207Z,21.30
2018-04-10T03:54:59.360Z,20.47
2018-04-10T03:57:35.999Z,20.87
2018-04-10T04:00:10.560Z,22.23
2018-04-10T04:02:46.172Z,25.67
2018-04-10T04:05:21.173Z,23.97
2018-04-10T04:08:00.700Z,21.27
2018-04-10T04:10:35.686Z,23.00
2018-04-10T04:13:10.748Z,21.93
2018-04-10T04:15:46.144Z,21.10
2018-04-10T04:18:29.550Z,20.00
2018-04-10T04:23:20.514Z,21.77
2018-04-10T04:25:57.157Z,19.73
2018-04-10T04:28:32.242Z,19.83
2018-04-10T04:31:08.198Z,22.20
2018-04-10T04:33:43.261Z,21.47
2018-04-10T04:36:18.770Z,23.10
2018-04-10T04:38:54.904Z,22.37
2018-04-10T04:41:30.644Z,22.50
2018-04-10T04:44:05.366Z,22.00
2018-04-10T04:46:40.513Z,26.93
2018-04-10T04:49:15.847Z,22.30
2018-04-10T04:51:52.115Z,21.27
2018-04-10T04:54:27.370Z,21.80
2018-04-10T04:57:03.386Z,23.70
2018-04-10T04:59:38.269Z,22.37
2018-04-10T05:02:14.139Z,24.50
2018-04-10T05:04:48.966Z,22.97
2018-04-10T05:07:24.377Z,21.37
2018-04-10T05:09:59.908Z,21.27
2018-04-10T05:12:44.951Z,24.97
2018-04-10T05:15:20.043Z,23.33
2018-04-10T05:17:59.088Z,20.83
2018-04-10T05:20:38.501Z,19.80
2018-04-10T05:23:19.626Z,22.63
2018-04-10T05:25:55.358Z,26.57
2018-04-10T05:28:31.895Z,23.50
2018-04-10T05:31:08.563Z,22.43
2018-04-10T05:33:44.804Z,21.73
2018-04-10T05:36:20.244Z,24.33
2018-04-10T05:38:55.784Z,22.40
2018-04-10T05:41:30.574Z,21.07
2018-04-10T05:44:06.302Z,24.70
2018-04-10T05:46:42.879Z,24.63
2018-04-10T05:49:21.644Z,24.70
2018-04-10T05:52:00.733Z,26.00
2018-04-10T05:54:41.704Z,23.40
2018-04-10T05:57:17.911Z,21.10
2018-04-10T05:59:54.400Z,28.03
2018-04-10T06:02:33.479Z,29.80
2018-04-10T06:05:11.876Z,23.50
2018-04-10T06:07:47.029Z,22.57
2018-04-10T13:36:16.206Z,3.63
2018-04-10T13:38:53.732Z,4.30
2018-04-10T13:41:28.611Z,6.57
2018-04-10T13:44:05.251Z,3.33
2018-04-10T13:46:42.050Z,4.90
2018-04-10T13:49:19.194Z,4.33
2018-04-10T13:51:54.675Z,2.83
2018-04-10T13:54:28.456Z,4.90
2018-04-10T13:57:02.869Z,2.50
2018-04-10T13:59:39.204Z,5.57
2018-04-10T14:02:19.233Z,3.57
2018-04-10T14:05:02.425Z,4.07
2018-04-10T14:07:42.726Z,3.83
2018-04-10T14:10:17.755Z,3.13
2018-04-10T14:12:51.310Z,4.27
2018-04-10T14:15:25.529Z,2.30
2018-04-10T14:18:00.049Z,1.87
2018-04-10T14:20:34.543Z,2.00
2018-04-10T14:23:11.768Z,4.43
2018-04-10T14:25:49.081Z,4.43
2018-04-10T14:28:24.681Z,2.93
2018-04-10T14:30:59.467Z,1.70
2018-04-10T14:33:33.332Z,2.87
2018-04-10T14:36:07.098Z,3.07
2018-04-10T14:38:42.690Z,3.60
2018-04-10T14:41:17.016Z,1.97
2018-04-10T14:43:59.139Z,2.03
2018-04-10T14:46:35.008Z,6.93
2018-04-10T14:49:10.790Z,3.17
2018-04-10T14:51:44.967Z,4.20
2018-04-10T14:54:22.212Z,3.67
2018-04-10T14:56:57.856Z,2.87
2018-04-10T14:59:33.341Z,4.00
2018-04-10T15:02:10.513Z,5.63
2018-04-10T15:04:45.722Z,3.07
2018-04-10T15:07:19.220Z,6.27
2018-04-10T15:09:54.295Z,4.20
2018-04-10T15:12:29.777Z,2.53
2018-04-10T15:15:03.836Z,2.23
2018-04-10T15:17:38.151Z,2.33
2018-04-10T15:20:12.917Z,2.50
2018-04-10T15:22:47.915Z,3.67
2018-04-10T15:25:23.473Z,4.20
2018-04-10T15:27:59.471Z,4.03
2018-04-10T15:30:37.546Z,2.90
2018-04-10T15:33:12.614Z,4.60
2018-04-10T15:35:48.368Z,5.67
2018-04-10T15:38:21.794Z,1.40
2018-04-10T15:40:55.929Z,4.97
2018-04-10T15:43:31.367Z,3.73
2018-04-10T15:46:05.171Z,4.70
2018-04-10T15:48:38.946Z,1.63
2018-04-10T15:51:13.572Z,4.83
2018-04-10T15:53:47.916Z,2.23
2018-04-10T15:56:22.119Z,3.23
2018-04-10T15:58:55.808Z,2.03
2018-04-10T16:01:31.021Z,6.90
2018-04-10T16:04:04.956Z,1.83
2018-04-10T16:06:38.609Z,3.90
2018-04-10T16:09:15.700Z,2.83
2018-04-10T16:11:49.738Z,2.57
2018-04-10T16:14:23.729Z,1.70
2018-04-10T16:16:57.860Z,1.93
2018-04-10T16:19:32.653Z,6.10
2018-04-10T16:22:06.660Z,2.23
2018-04-10T16:24:40.286Z,3.00
2018-04-10T16:27:15.323Z,2.43
2018-04-10T16:29:51.238Z,1.83
2018-04-10T16:32:27.657Z,1.60
2018-04-10T16:35:02.481Z,1.97
2018-04-10T16:37:36.616Z,3.80
2018-04-10T16:40:10.787Z,3.00
2018-04-10T16:42:44.547Z,1.83
2018-04-10T16:45:18.708Z,2.17
2018-04-10T16:48:00.624Z,2.33
2018-04-10T16:50:35.370Z,5.13
2018-04-10T16:53:08.770Z,2.03
2018-04-10T16:55:43.762Z,2.30
2018-04-10T16:58:18.447Z,1.90
2018-04-10T17:00:52.237Z,2.20
2018-04-10T17:03:25.666Z,2.67
2018-04-10T17:05:59.344Z,2.73
2018-04-10T17:08:32.969Z,2.87
2018-04-10T17:11:06.437Z,1.80
2018-04-10T17:13:41.558Z,3.67
2018-04-10T17:16:15.486Z,2.57
2018-04-10T17:18:48.898Z,2.53
2018-04-10T17:21:22.421Z,2.73
2018-04-10T17:23:55.861Z,2.57
2018-04-10T17:26:29.473Z,2.10
2018-04-10T17:29:03.697Z,2.47
2018-04-10T17:31:37.631Z,2.00
2018-04-10T17:34:11.116Z,1.97
2018-04-10T17:36:44.568Z,5.00
2018-04-10T17:39:18.157Z,1.70
2018-04-10T17:41:51.606Z,5.30
2018-04-10T17:44:25.181Z,1.63
2018-04-10T17:46:58.752Z,4.83
2018-04-10T17:49:32.156Z,2.10
2018-04-10T17:52:05.576Z,2.27
2018-04-10T17:54:38.967Z,2.60
2018-04-10T17:57:12.305Z,2.33
2018-04-10T18:02:19.133Z,1.97
2018-04-10T18:07:57.116Z,7.47
2018-04-10T18:10:36.372Z,3.27
2018-04-10T18:13:12.239Z,2.43
2018-04-10T18:15:49.277Z,2.37
2018-04-10T18:18:42.212Z,2.00
2018-04-10T18:24:11.096Z,2.40
2018-04-10T18:26:55.770Z,1.73
2018-04-10T18:29:37.108Z,3.23
2018-04-10T18:32:14.918Z,1.70
2018-04-10T18:37:56.636Z,2.07
2018-04-10T18:40:35.796Z,2.00
2018-04-10T18:43:24.044Z,2.70
2018-04-10T18:46:01.489Z,2.07
2018-04-10T18:48:37.741Z,2.53
2018-04-10T18:51:16.915Z,2.97
2018-04-10T18:53:54.341Z,2.47
2018-04-10T18:56:29.921Z,2.33
2018-04-10T18:59:16.242Z,2.53
2018-04-10T19:01:58.042Z,2.23
2018-04-10T19:04:35.672Z,2.67
2018-04-10T19:07:16.374Z,3.17
2018-04-10T19:09:54.019Z,3.60
2018-04-10T19:12:54.816Z,1.67
2018-04-10T19:15:45.712Z,1.87
2018-04-10T19:18:34.094Z,1.97
2018-04-10T19:21:17.109Z,3.50
2018-04-10T19:26:39.486Z,1.63
2018-04-10T19:29:29.295Z,1.93
2018-04-10T19:32:17.734Z,3.93
2018-04-10T19:34:54.778Z,3.37
2018-04-10T19:37:30.073Z,4.67
2018-04-10T19:40:08.850Z,1.70
2018-04-10T19:42:46.113Z,3.37
2018-04-10T19:45:23.591Z,2.23
2018-04-10T19:48:01.871Z,2.77
2018-04-10T19:50:41.359Z,3.63
2018-04-10T19:53:25.055Z,2.10
2018-04-10T19:55:58.953Z,2.77
2018-04-10T19:58:32.593Z,3.17
2018-04-10T20:01:10.029Z,3.77
2018-04-10T20:03:43.649Z,2.00
2018-04-10T20:06:17.166Z,3.73
2018-04-10T20:08:50.479Z,3.17
2018-04-10T20:11:24.891Z,2.10
2018-04-10T20:13:58.362Z,2.20
2018-04-10T20:16:31.748Z,2.27
2018-04-10T20:19:05.337Z,2.10
2018-04-10T20:21:38.829Z,4.93
2018-04-10T20:24:12.148Z,5.07
2018-04-10T20:26:45.536Z,2.87
2018-04-10T20:29:19.021Z,3.43
2018-04-10T20:31:52.532Z,1.60
2018-04-10T20:34:26.182Z,2.70
2018-04-10T20:36:59.493Z,2.80
2018-04-10T20:39:33.857Z,3.17
2018-04-10T20:42:07.455Z,1.70
2018-04-10T20:44:44.507Z,2.30
2018-04-10T20:47:18.004Z,2.17
2018-04-10T20:49:51.632Z,2.37
2018-04-10T20:52:25.222Z,2.80
2018-04-10T20:54:58.479Z,3.20
2018-04-10T20:57:32.695Z,1.70
2018-04-10T21:00:06.271Z,2.93
2018-04-10T21:02:39.897Z,2.73
2018-04-10T21:05:13.066Z,2.93
2018-04-10T21:07:46.696Z,2.43
2018-04-10T21:10:20.184Z,2.17
2018-04-10T21:12:53.391Z,2.80
2018-04-10T21:15:26.890Z,3.13
2018-04-10T21:18:00.277Z,2.23
2018-04-10T21:20:33.401Z,2.47
2018-04-10T21:23:06.804Z,3.27
2018-04-10T21:25:40.178Z,1.70
2018-04-10T21:28:13.512Z,2.20
2018-04-10T21:30:46.980Z,3.33
2018-04-10T21:33:20.153Z,2.07
2018-04-10T21:35:53.701Z,4.13
2018-04-10T21:38:27.061Z,3.13
2018-04-10T21:41:00.276Z,2.30
2018-04-10T21:43:34.802Z,2.57
2018-04-10T21:46:08.072Z,2.00
2018-04-10T21:48:41.328Z,1.73
2018-04-10T21:51:15.169Z,2.10
2018-04-10T21:53:48.648Z,3.97
2018-04-10T21:56:21.884Z,2.70
2018-04-10T21:58:55.646Z,3.03
2018-04-10T22:01:29.153Z,1.90
2018-04-10T22:04:02.418Z,1.93
2018-04-10T22:06:36.464Z,2.27
2018-04-10T22:09:09.968Z,2.20
2018-04-10T22:11:45.267Z,2.97
2018-04-10T22:14:18.973Z,3.60
2018-04-10T22:16:52.590Z,2.67
2018-04-10T22:19:25.990Z,2.30
2018-04-10T22:21:59.288Z,2.67
2018-04-10T22:24:32.621Z,3.70
2018-04-10T22:27:06.350Z,2.53
2018-04-10T22:29:39.652Z,2.60
2018-04-10T22:32:13.323Z,2.83
2018-04-10T22:34:46.587Z,2.50
2018-04-10T22:37:19.937Z,2.63
2018-04-10T22:39:56.820Z,3.17
2018-04-10T22:42:32.698Z,3.13
2018-04-10T22:45:11.664Z,3.93
2018-04-10T22:47:45.711Z,3.73
2018-04-10T22:50:19.613Z,4.53
2018-04-10T22:52:52.898Z,3.60
2018-04-10T22:55:26.301Z,4.20
2018-04-10T22:57:59.921Z,2.90
2018-04-10T23:00:33.895Z,3.23
2018-04-10T23:03:06.854Z,3.17
2018-04-10T23:05:40.858Z,2.47
2018-04-10T23:08:14.230Z,3.43
2018-04-10T23:10:47.604Z,3.20
2018-04-10T23:13:21.970Z,2.80
2018-04-10T23:15:55.652Z,4.50
2018-04-10T23:18:29.034Z,3.40
2018-04-10T23:21:02.560Z,3.27
2018-04-10T23:23:35.885Z,3.50
2018-04-10T23:26:09.181Z,3.10
2018-04-10T23:28:43.094Z,2.93
2018-04-10T23:31:17.406Z,2.63
2018-04-10T23:33:50.884Z,2.20
2018-04-10T23:36:24.390Z,2.73
2018-04-10T23:38:57.614Z,3.37
2018-04-10T23:41:31.137Z,2.57
2018-04-10T23:44:04.620Z,2.80
2018-04-10T23:46:37.944Z,4.43
2018-04-10T23:49:11.390Z,2.60
2018-04-10T23:51:44.786Z,2.97
2018-04-10T23:54:18.122Z,3.50
2018-04-10T23:56:51.464Z,2.80
2018-04-10T23:59:25.033Z,3.87
